createdAt,value
2023-02-22T00:01:50.569Z,41.95
2023-02-22T00:04:21.196Z,36.72
2023-02-22T00:06:49.569Z,37.45
2023-02-22T00:09:20.640Z,40.42
2023-02-22T00:11:48.613Z,39.25
2023-02-22T00:14:15.843Z,43.83
2023-02-22T00:16:43.055Z,48.35
2023-02-22T00:19:11.296Z,41.22
2023-02-22T00:21:38.491Z,45.35
2023-02-22T00:24:22.823Z,41.53
2023-02-22T00:26:51.224Z,43.67
2023-02-22T00:29:18.438Z,46.72
2023-02-22T00:31:45.793Z,43.38
2023-02-22T00:34:15.293Z,45.30
2023-02-22T00:36:49.065Z,44.30
2023-02-22T00:39:16.501Z,48.83
2023-02-22T00:41:44.091Z,46.92
2023-02-22T00:44:11.719Z,44.45
2023-02-22T00:46:39.731Z,47.00
2023-02-22T00:49:06.934Z,48.15
2023-02-22T00:51:34.120Z,46.15
2023-02-22T00:54:01.495Z,45.78
2023-02-22T00:56:28.742Z,47.78
2023-02-22T00:58:55.918Z,50.38
2023-02-22T01:01:24.056Z,44.10
2023-02-22T01:03:51.415Z,41.67
2023-02-22T01:06:18.817Z,41.30
2023-02-22T01:08:46.540Z,39.05
2023-02-22T01:11:15.616Z,46.55
2023-02-22T01:13:45.225Z,46.22
2023-02-22T01:16:12.405Z,42.38
2023-02-22T01:18:39.589Z,41.60
2023-02-22T01:21:08.892Z,46.92
2023-02-22T01:23:36.117Z,44.38
2023-02-22T01:26:05.867Z,47.50
2023-02-22T01:28:33.615Z,43.10
2023-02-22T01:31:03.042Z,42.67
2023-02-22T01:33:30.341Z,44.13
2023-02-22T01:35:57.865Z,40.40
2023-02-22T01:38:25.062Z,46.65
2023-02-22T01:40:52.445Z,44.72
2023-02-22T01:43:19.601Z,46.50
2023-02-22T01:46:05.939Z,45.20
2023-02-22T01:48:36.248Z,39.22
2023-02-22T01:51:03.392Z,47.30
2023-02-22T01:53:33.219Z,47.65
2023-02-22T01:56:01.016Z,46.67
2023-02-22T01:58:29.738Z,51.30
2023-02-22T02:00:57.677Z,52.85
2023-02-22T02:03:27.606Z,49.17
2023-02-22T02:05:56.796Z,56.97
2023-02-22T02:08:28.183Z,57.78
2023-02-22T02:10:57.958Z,56.03
2023-02-22T02:13:25.994Z,59.67
2023-02-22T02:15:55.160Z,57.15
2023-02-22T02:18:23.397Z,57.75
2023-02-22T02:21:06.233Z,63.25
2023-02-22T02:26:18.931Z,67.18
2023-02-22T02:28:59.563Z,71.05
2023-02-22T02:31:41.803Z,72.88
2023-02-22T02:34:41.496Z,74.68
2023-02-22T02:37:13.122Z,69.72
2023-02-22T02:39:44.732Z,69.78
2023-02-22T02:42:13.532Z,76.82
2023-02-22T02:44:48.473Z,75.65
2023-02-22T02:47:18.746Z,75.53
2023-02-22T02:49:57.956Z,74.18
2023-02-22T02:52:26.548Z,70.50
2023-02-22T02:54:54.828Z,78.85
2023-02-22T02:57:22.018Z,76.63
2023-02-22T02:59:49.348Z,75.93
2023-02-22T03:02:34.984Z,74.22
2023-02-22T03:05:08.086Z,73.07
2023-02-22T03:07:42.848Z,74.15
2023-02-22T03:10:37.838Z,84.50
2023-02-22T03:13:24.720Z,75.85
2023-02-22T03:15:52.529Z,76.03
2023-02-22T03:18:25.381Z,74.93
2023-02-22T03:21:00.583Z,79.60
2023-02-22T03:23:32.381Z,78.25
2023-02-22T03:26:05.474Z,80.63
2023-02-22T03:28:37.663Z,74.03
2023-02-22T03:31:10.266Z,73.95
2023-02-22T03:33:41.424Z,87.70
2023-02-22T03:36:21.270Z,84.68
2023-02-22T03:38:49.988Z,84.30
2023-02-22T03:41:20.355Z,76.82
2023-02-22T03:43:49.478Z,76.68
2023-02-22T03:46:19.170Z,81.57
2023-02-22T03:48:54.221Z,72.03
2023-02-22T03:51:22.196Z,75.40
2023-02-22T03:53:53.703Z,84.03
2023-02-22T03:56:27.312Z,82.80
2023-02-22T03:58:54.774Z,77.05
2023-02-22T04:01:23.753Z,79.20
2023-02-22T04:03:51.004Z,78.50
2023-02-22T04:06:18.390Z,78.93
2023-02-22T04:08:46.255Z,79.10
2023-02-22T04:11:13.540Z,75.80
2023-02-22T04:13:41.813Z,82.75
2023-02-22T04:16:09.212Z,80.15
2023-02-22T04:18:36.930Z,79.80
2023-02-22T04:21:04.273Z,75.55
2023-02-22T04:23:36.496Z,80.22
2023-02-22T04:26:03.748Z,72.97
2023-02-22T04:28:31.269Z,80.53
2023-02-22T04:31:09.420Z,81.93
2023-02-22T04:33:36.633Z,80.55
2023-02-22T04:36:04.465Z,81.78
2023-02-22T04:38:35.020Z,81.10
2023-02-22T04:41:02.196Z,81.13
2023-02-22T04:43:29.470Z,75.28
2023-02-22T04:46:10.944Z,81.32
2023-02-22T04:48:38.141Z,76.60
2023-02-22T04:51:05.333Z,78.03
2023-02-22T04:53:33.040Z,81.20
2023-02-22T04:56:00.428Z,84.20
2023-02-22T04:58:27.644Z,90.20
2023-02-22T05:00:54.792Z,84.60
2023-02-22T05:03:21.935Z,85.40
2023-02-22T05:05:49.024Z,75.32
2023-02-22T05:08:16.212Z,87.07
2023-02-22T05:10:43.424Z,83.03
2023-02-22T05:13:10.748Z,85.80
2023-02-22T05:15:37.895Z,73.90
2023-02-22T05:18:05.075Z,83.95
2023-02-22T05:20:34.298Z,81.20
2023-02-22T05:23:02.490Z,77.65
2023-02-22T05:25:30.158Z,94.50
2023-02-22T05:27:59.021Z,79.80
2023-02-22T05:30:28.771Z,78.82
2023-02-22T05:32:56.389Z,92.38
2023-02-22T05:35:23.961Z,84.75
2023-02-22T05:37:51.724Z,78.85
2023-02-22T05:40:20.239Z,78.97
2023-02-22T05:42:49.073Z,77.30
2023-02-22T05:45:17.515Z,89.32
2023-02-22T05:47:45.105Z,84.70
2023-02-22T05:50:12.325Z,82.90
2023-02-22T05:52:39.507Z,88.50
2023-02-22T05:55:07.260Z,94.60
2023-02-22T05:57:34.847Z,78.55
2023-02-22T06:00:02.259Z,83.60
2023-02-22T06:02:29.679Z,82.35
2023-02-22T06:04:56.826Z,86.20
2023-02-22T06:07:23.961Z,93.32
2023-02-22T06:09:51.028Z,84.95
2023-02-22T06:12:18.228Z,91.90
2023-02-22T06:14:48.408Z,89.63
2023-02-22T06:17:16.183Z,83.95
2023-02-22T06:19:43.344Z,92.75
2023-02-22T06:22:16.829Z,85.57
2023-02-22T06:24:44.034Z,95.82
2023-02-22T06:27:11.227Z,86.22
2023-02-22T06:29:38.544Z,89.18
2023-02-22T06:32:05.792Z,84.72
2023-02-22T06:34:33.043Z,92.50
2023-02-22T06:37:00.592Z,88.22
2023-02-22T06:39:27.685Z,93.28
2023-02-22T06:41:56.341Z,89.50
2023-02-22T06:44:23.455Z,87.97
2023-02-22T06:46:51.289Z,100.28
2023-02-22T06:49:18.819Z,102.22
2023-02-22T06:51:46.155Z,96.88
2023-02-22T06:54:13.488Z,94.22
2023-02-22T06:56:40.593Z,100.97
2023-02-22T06:59:08.404Z,100.15
2023-02-22T07:01:35.652Z,103.63
2023-02-22T07:04:03.061Z,93.70
2023-02-22T07:06:30.213Z,101.70
2023-02-22T07:08:57.403Z,100.30
2023-02-22T07:11:24.727Z,102.25
2023-02-22T07:13:51.937Z,97.90
2023-02-22T07:16:19.192Z,98.35
2023-02-22T07:18:46.853Z,103.05
2023-02-22T07:21:13.968Z,101.32
2023-02-22T07:23:41.031Z,112.22
2023-02-22T07:26:08.336Z,108.25
2023-02-22T07:28:35.572Z,103.70
2023-02-22T07:31:02.799Z,95.90
2023-02-22T07:33:29.920Z,105.18
2023-02-22T07:35:57.035Z,106.53
2023-02-22T07:38:24.113Z,99.28
2023-02-22T07:40:54.239Z,98.97
2023-02-22T07:43:25.364Z,104.38
2023-02-22T07:45:54.823Z,97.35
2023-02-22T07:48:22.812Z,92.53
2023-02-22T07:50:50.306Z,96.57
2023-02-22T07:53:19.044Z,91.07
2023-02-22T07:55:46.392Z,88.70
2023-02-22T07:58:15.135Z,90.03
2023-02-22T08:00:44.166Z,93.78
2023-02-22T08:03:13.202Z,87.25
2023-02-22T08:05:46.124Z,98.63
2023-02-22T08:08:15.122Z,90.20
2023-02-22T08:10:42.880Z,91.82
2023-02-22T08:13:10.487Z,89.28
2023-02-22T08:15:39.159Z,95.00
2023-02-22T08:18:09.110Z,91.38
2023-02-22T08:20:36.866Z,98.55
2023-02-22T08:23:04.967Z,94.28
2023-02-22T08:25:32.344Z,103.30
2023-02-22T08:28:04.556Z,114.85
2023-02-22T08:30:32.720Z,105.72
2023-02-22T08:33:00.578Z,100.18
2023-02-22T08:35:28.173Z,94.45
2023-02-22T08:37:57.370Z,105.50
2023-02-22T08:40:25.604Z,105.43
2023-02-22T08:42:55.454Z,94.05
2023-02-22T08:45:22.762Z,101.90
2023-02-22T08:47:50.100Z,107.07
2023-02-22T08:50:23.630Z,94.82
2023-02-22T08:52:52.046Z,108.28
2023-02-22T08:55:23.329Z,102.80
2023-02-22T08:57:50.667Z,94.63
2023-02-22T09:00:24.748Z,101.75
2023-02-22T09:02:52.706Z,100.40
2023-02-22T09:05:20.076Z,99.18
2023-02-22T09:07:47.324Z,94.40
2023-02-22T09:10:19.378Z,80.80
2023-02-22T09:12:46.713Z,78.10
2023-02-22T09:15:13.980Z,91.13
2023-02-22T09:17:41.135Z,77.38
2023-02-22T09:20:08.781Z,84.20
2023-02-22T09:22:35.948Z,83.43
2023-02-22T09:25:15.880Z,91.18
2023-02-22T09:27:44.284Z,82.95
2023-02-22T09:30:38.060Z,82.95
2023-02-22T09:33:10.625Z,82.25
2023-02-22T09:38:09.048Z,84.90
2023-02-22T09:40:44.755Z,90.90
2023-02-22T09:43:22.056Z,82.35
2023-02-22T09:46:13.417Z,81.93
2023-02-22T09:48:52.132Z,81.68
2023-02-22T09:51:21.112Z,84.35
2023-02-22T09:53:50.430Z,82.50
2023-02-22T09:56:19.485Z,82.75
2023-02-22T09:58:48.360Z,80.30
2023-02-22T10:01:26.571Z,84.45
2023-02-22T10:03:57.676Z,76.70
2023-02-22T10:06:25.636Z,82.38
2023-02-22T10:08:56.370Z,74.95
2023-02-22T10:11:30.034Z,76.63
2023-02-22T10:14:15.857Z,81.63
2023-02-22T10:16:43.176Z,74.32
2023-02-22T10:19:11.187Z,76.03
2023-02-22T10:24:27.331Z,71.95
2023-02-22T10:26:57.351Z,79.63
2023-02-22T10:29:30.463Z,70.60
2023-02-22T10:31:59.308Z,73.65
2023-02-22T10:34:30.673Z,73.53
2023-02-22T10:37:08.974Z,65.15
2023-02-22T10:39:37.540Z,65.32
2023-02-22T10:42:06.745Z,67.25
2023-02-22T10:44:37.820Z,64.00
2023-02-22T10:47:07.341Z,69.93
2023-02-22T10:49:40.149Z,64.63
2023-02-22T10:52:14.316Z,60.47
2023-02-22T10:54:46.174Z,62.25
2023-02-22T10:57:13.618Z,65.57
2023-02-22T10:59:42.488Z,60.05
2023-02-22T11:02:20.526Z,65.22
2023-02-22T11:04:52.513Z,62.33
2023-02-22T11:07:21.625Z,61.40
2023-02-22T11:09:50.445Z,58.20
2023-02-22T11:12:19.352Z,59.38
2023-02-22T11:14:46.673Z,60.35
2023-02-22T11:17:17.588Z,59.28
2023-02-22T11:19:49.108Z,62.88
2023-02-22T11:22:36.591Z,67.65
2023-02-22T11:25:07.466Z,62.97
2023-02-22T11:27:38.160Z,59.38
2023-02-22T11:30:08.350Z,72.68
2023-02-22T11:32:36.547Z,61.17
2023-02-22T11:35:20.545Z,57.63
2023-02-22T11:37:48.095Z,59.33
2023-02-22T11:40:22.050Z,62.05
2023-02-22T11:42:50.191Z,59.08
2023-02-22T11:45:24.817Z,59.90
2023-02-22T11:47:56.674Z,62.85
2023-02-22T11:50:28.905Z,65.10
2023-02-22T11:53:03.847Z,70.53
2023-02-22T11:55:43.247Z,65.45
2023-02-22T11:58:26.552Z,54.90
2023-02-22T12:00:57.356Z,64.28
2023-02-22T12:03:37.152Z,59.05
2023-02-22T12:06:14.486Z,59.95
2023-02-22T12:09:00.656Z,53.28
2023-02-22T12:11:28.612Z,53.50
2023-02-22T12:13:58.767Z,54.65
2023-02-22T12:16:26.024Z,58.20
2023-02-22T12:19:03.254Z,55.92
2023-02-22T12:21:31.700Z,51.03
2023-02-22T12:24:07.409Z,50.42
2023-02-22T12:26:36.859Z,54.28
2023-02-22T12:29:09.895Z,51.78
2023-02-22T12:31:39.587Z,50.45
2023-02-22T12:34:14.960Z,52.38
2023-02-22T12:36:47.787Z,48.15
2023-02-22T12:39:40.987Z,44.50
2023-02-22T12:42:16.488Z,48.53
2023-02-22T12:47:15.202Z,45.10
2023-02-22T12:49:44.501Z,44.58
2023-02-22T12:52:21.536Z,42.42
2023-02-22T12:54:56.271Z,42.47
2023-02-22T12:57:44.993Z,38.30
2023-02-22T13:00:23.195Z,39.28
2023-02-22T13:02:55.665Z,41.78
2023-02-22T13:05:23.342Z,39.40
2023-02-22T13:07:56.498Z,34.90
2023-02-22T13:10:53.007Z,43.63
2023-02-22T13:13:23.440Z,39.85
2023-02-22T13:15:50.831Z,37.85
2023-02-22T13:18:29.850Z,35.72
2023-02-22T13:21:16.475Z,38.97
2023-02-22T13:23:44.256Z,39.03
2023-02-22T13:26:30.368Z,32.22
2023-02-22T13:29:00.791Z,38.42
2023-02-22T13:31:46.564Z,37.13
2023-02-22T13:34:26.006Z,41.05
2023-02-22T13:37:08.527Z,36.05
2023-02-22T13:39:55.515Z,35.38
2023-02-22T13:42:22.724Z,37.47
2023-02-22T13:44:52.806Z,39.05
2023-02-22T13:47:26.801Z,37.20
2023-02-22T13:49:57.094Z,33.85
2023-02-22T13:52:26.043Z,36.80
2023-02-22T13:54:56.115Z,39.15
2023-02-22T13:57:39.713Z,38.60
2023-02-22T14:00:16.211Z,36.42
2023-02-22T14:03:03.637Z,32.67
2023-02-22T14:05:44.555Z,38.85
2023-02-22T14:08:14.695Z,36.70
2023-02-22T14:10:45.416Z,33.83
2023-02-22T14:13:13.350Z,32.83
2023-02-22T14:16:05.054Z,34.88
2023-02-22T14:18:42.738Z,31.98
2023-02-22T14:21:22.722Z,34.78
2023-02-22T14:23:52.246Z,35.00
2023-02-22T14:26:30.220Z,34.03
2023-02-22T14:29:03.042Z,37.90
2023-02-22T14:31:37.285Z,38.70
2023-02-22T14:34:07.267Z,30.67
2023-02-22T14:36:47.581Z,30.20
2023-02-22T14:39:17.723Z,34.42
2023-02-22T14:42:20.536Z,34.78
2023-02-22T14:45:06.463Z,34.47
2023-02-22T14:47:47.729Z,35.05
2023-02-22T14:50:21.382Z,35.67
2023-02-22T14:52:49.659Z,37.40
2023-02-22T14:55:21.394Z,33.42
2023-02-22T14:58:01.509Z,30.30
2023-02-22T15:00:40.030Z,34.17
2023-02-22T15:03:17.715Z,35.38
2023-02-22T15:05:44.991Z,31.63
2023-02-22T15:08:15.616Z,33.88
2023-02-22T15:10:44.439Z,32.83
2023-02-22T15:13:15.727Z,35.42
2023-02-22T15:15:47.533Z,33.10
2023-02-22T15:18:22.184Z,31.75
2023-02-22T15:20:57.502Z,31.17
2023-02-22T15:23:33.384Z,35.47
2023-02-22T15:26:00.858Z,34.80
2023-02-22T15:28:31.230Z,36.53
2023-02-22T15:31:14.890Z,33.33
2023-02-22T15:33:42.154Z,32.53
2023-02-22T15:36:14.301Z,32.58
2023-02-22T15:38:43.133Z,33.45
2023-02-22T15:41:20.594Z,36.45
2023-02-22T15:43:57.626Z,35.90
2023-02-22T15:46:24.853Z,33.50
2023-02-22T15:49:29.307Z,37.55
2023-02-22T15:52:34.995Z,34.60
2023-02-22T15:55:02.199Z,35.30
2023-02-22T15:57:30.599Z,34.38
2023-02-22T15:59:58.167Z,36.88
2023-02-22T16:02:42.267Z,35.58
2023-02-22T16:05:13.831Z,33.10
2023-02-22T16:07:54.256Z,34.33
2023-02-22T16:10:26.921Z,33.05
2023-02-22T16:15:21.921Z,32.90
2023-02-22T16:18:02.095Z,32.38
2023-02-22T16:20:32.594Z,32.83
2023-02-22T16:23:00.539Z,29.55
2023-02-22T16:25:32.928Z,33.55
2023-02-22T16:28:01.600Z,32.75
2023-02-22T16:30:28.841Z,30.17
2023-02-22T16:32:57.463Z,31.20
2023-02-22T16:35:29.210Z,31.67
2023-02-22T16:38:06.628Z,33.10
2023-02-22T16:40:50.351Z,33.17
2023-02-22T16:43:19.435Z,32.88
2023-02-22T16:45:47.159Z,30.50
2023-02-22T16:48:20.945Z,33.97
2023-02-22T16:50:50.254Z,32.13
2023-02-22T16:53:20.233Z,29.80
2023-02-22T16:55:48.206Z,30.13
2023-02-22T16:58:15.950Z,32.67
2023-02-22T17:00:43.167Z,37.35
2023-02-22T17:03:14.783Z,30.92
2023-02-22T17:05:42.060Z,33.75
2023-02-22T17:08:09.358Z,30.58
2023-02-22T17:10:36.824Z,35.83
2023-02-22T17:13:21.581Z,33.58
2023-02-22T17:15:50.193Z,29.60
2023-02-22T17:18:22.923Z,31.45
2023-02-22T17:20:50.691Z,32.15
2023-02-22T17:23:17.962Z,28.70
2023-02-22T17:25:55.177Z,30.88
2023-02-22T17:28:23.649Z,32.70
2023-02-22T17:30:51.549Z,29.92
2023-02-22T17:33:21.061Z,34.03
2023-02-22T17:35:48.751Z,36.63
2023-02-22T17:38:19.105Z,35.22
2023-02-22T17:40:54.750Z,40.05
2023-02-22T17:43:22.444Z,32.75
2023-02-22T17:45:50.191Z,32.13
2023-02-22T17:48:18.364Z,31.20
2023-02-22T17:50:46.463Z,31.15
2023-02-22T17:53:14.060Z,33.60
2023-02-22T17:55:42.525Z,30.77
2023-02-22T17:58:14.539Z,33.22
2023-02-22T18:00:46.882Z,32.00
2023-02-22T18:03:16.269Z,34.78
2023-02-22T18:05:46.294Z,32.50
2023-02-22T18:08:13.883Z,31.02
2023-02-22T18:10:42.450Z,32.17
2023-02-22T18:13:10.495Z,30.80
2023-02-22T18:15:40.263Z,31.85
2023-02-22T18:18:15.036Z,31.10
2023-02-22T18:20:46.536Z,35.17
2023-02-22T18:23:24.737Z,33.92
2023-02-22T18:26:09.673Z,36.95
2023-02-22T18:28:41.051Z,33.10
2023-02-22T18:31:09.689Z,35.72
2023-02-22T18:33:37.099Z,36.88
2023-02-22T18:36:04.707Z,36.47
2023-02-22T18:38:31.935Z,51.05
2023-02-22T18:41:03.437Z,48.97
2023-02-22T18:43:35.512Z,45.42
2023-02-22T18:46:13.384Z,47.95
2023-02-22T18:48:40.886Z,43.38
2023-02-22T18:51:10.261Z,40.47
2023-02-22T18:53:38.478Z,46.10
2023-02-22T18:56:09.805Z,42.05
2023-02-22T18:58:38.901Z,44.60
2023-02-22T19:01:09.051Z,37.70
2023-02-22T19:03:39.414Z,43.42
2023-02-22T19:06:13.171Z,43.20
2023-02-22T19:08:44.046Z,44.90
2023-02-22T19:11:17.921Z,45.30
2023-02-22T19:13:58.204Z,43.72
2023-02-22T19:16:26.630Z,45.42
2023-02-22T19:18:58.083Z,42.40
2023-02-22T19:21:26.414Z,46.13
2023-02-22T19:24:00.475Z,43.63
2023-02-22T19:26:29.050Z,43.80
2023-02-22T19:28:58.832Z,45.17
2023-02-22T19:31:31.300Z,45.67
2023-02-22T19:34:08.669Z,44.28
2023-02-22T19:36:39.030Z,45.35
2023-02-22T19:39:06.443Z,43.33
2023-02-22T19:41:41.383Z,46.88
2023-02-22T19:44:13.056Z,41.05
2023-02-22T19:46:41.190Z,49.10
2023-02-22T19:49:08.776Z,42.28
2023-02-22T19:51:36.330Z,38.03
2023-02-22T19:54:05.118Z,35.42
2023-02-22T19:56:38.819Z,41.20
2023-02-22T19:59:13.495Z,42.28
2023-02-22T20:04:30.603Z,39.17
2023-02-22T20:06:59.409Z,42.58
2023-02-22T20:09:32.466Z,40.80
2023-02-22T20:12:03.944Z,45.97
2023-02-22T20:14:31.504Z,42.95
2023-02-22T20:16:59.484Z,38.15
2023-02-22T20:19:27.466Z,45.47
2023-02-22T20:22:03.125Z,41.55
2023-02-22T20:24:30.530Z,40.17
2023-02-22T20:26:58.511Z,38.70
2023-02-22T20:29:29.874Z,41.97
2023-02-22T20:32:00.936Z,38.55
2023-02-22T20:34:39.150Z,45.80
2023-02-22T20:37:06.538Z,44.90
2023-02-22T20:39:33.996Z,44.10
2023-02-22T20:42:03.510Z,43.80
2023-02-22T20:44:32.456Z,41.60
2023-02-22T20:46:59.819Z,46.10
2023-02-22T20:55:06.120Z,40.53
2023-02-22T20:57:36.261Z,40.55
2023-02-22T21:00:03.617Z,38.38
2023-02-22T21:02:42.807Z,46.40
2023-02-22T21:05:10.133Z,37.83
2023-02-22T21:07:37.521Z,42.92
2023-02-22T21:10:06.629Z,43.85
2023-02-22T21:12:34.446Z,42.78
2023-02-22T21:15:01.930Z,40.80
2023-02-22T21:17:39.945Z,39.67
2023-02-22T21:20:12.321Z,41.50
2023-02-22T21:22:42.418Z,43.65
2023-02-22T21:25:10.724Z,45.25
2023-02-22T21:27:37.924Z,43.15
2023-02-22T21:30:05.437Z,40.42
2023-02-22T21:32:41.005Z,42.92
2023-02-22T21:35:09.074Z,41.10
2023-02-22T21:37:39.695Z,43.90
2023-02-22T21:40:14.371Z,44.17
2023-02-22T21:42:41.604Z,42.15
2023-02-22T21:45:19.813Z,39.70
2023-02-22T21:47:47.564Z,39.35
2023-02-22T21:50:18.879Z,41.28
2023-02-22T21:52:49.943Z,41.83
2023-02-22T21:55:19.719Z,43.45
2023-02-22T21:57:49.889Z,39.40
2023-02-22T22:00:17.356Z,39.47
2023-02-22T22:02:48.486Z,42.53
2023-02-22T22:05:18.040Z,41.17
2023-02-22T22:07:45.234Z,42.55
2023-02-22T22:10:17.840Z,40.25
2023-02-22T22:15:17.657Z,39.95
2023-02-22T22:17:46.298Z,43.47
2023-02-22T22:20:15.228Z,46.33
2023-02-22T22:22:45.345Z,44.80
2023-02-22T22:25:14.202Z,42.88
2023-02-22T22:27:41.429Z,41.05
2023-02-22T22:30:10.839Z,42.92
2023-02-22T22:32:38.482Z,47.42
2023-02-22T22:35:08.869Z,42.10
2023-02-22T22:37:36.346Z,45.53
2023-02-22T22:40:05.256Z,49.42
2023-02-22T22:42:32.686Z,44.55
2023-02-22T22:44:59.893Z,43.63
2023-02-22T22:47:27.105Z,47.95
2023-02-22T22:50:01.470Z,49.15
2023-02-22T22:52:31.283Z,43.97
2023-02-22T22:55:00.674Z,52.00
2023-02-22T22:57:28.171Z,43.65
2023-02-22T22:59:56.031Z,49.13
2023-02-22T23:02:23.236Z,47.05
2023-02-22T23:04:51.635Z,47.47
2023-02-22T23:07:18.808Z,51.70
2023-02-22T23:09:45.975Z,47.45
2023-02-22T23:12:19.438Z,44.90
2023-02-22T23:14:47.058Z,48.17
2023-02-22T23:17:16.162Z,53.15
2023-02-22T23:19:47.213Z,48.65
2023-02-22T23:22:15.139Z,50.00
2023-02-22T23:24:44.484Z,45.83
2023-02-22T23:27:12.319Z,46.22
2023-02-22T23:29:40.464Z,47.92
2023-02-22T23:32:07.876Z,52.35
2023-02-22T23:34:36.580Z,50.35
2023-02-22T23:37:06.309Z,48.80
2023-02-22T23:39:33.454Z,52.45
2023-02-22T23:42:00.726Z,56.90
2023-02-22T23:44:29.095Z,48.78
2023-02-22T23:46:56.336Z,50.67
2023-02-22T23:49:24.647Z,54.30
2023-02-22T23:51:52.619Z,54.45
2023-02-22T23:54:20.338Z,59.53
2023-02-22T23:56:56.147Z,59.28
2023-02-22T23:59:24.443Z,64.82
